sensor_id;sensor_type;location;lat;lon;timestamp;P1;durP1;ratioP1;P2;durP2;ratioP2
24421;SDS011;12600;53.326;-6.298;2023-07-16T00:00:00;14.13;;;3.70;;
24421;SDS011;12600;53.326;-6.298;2023-07-16T00:02:52;12.07;;;3.75;;
24421;SDS011;12600;53.326;-6.298;2023-07-16T00:05:45;15.30;;;3.72;;
24421;SDS011;12600;53.326;-6.298;2023-07-16T00:08:38;15.23;;;3.90;;
24421;SDS011;12600;53.326;-6.298;2023-07-16T00:11:28;11.18;;;3.70;;
24421;SDS011;12600;53.326;-6.298;2023-07-16T00:14:17;14.70;;;3.80;;
24421;SDS011;12600;53.326;-6.298;2023-07-16T00:17:07;11.00;;;3.13;;
24421;SDS011;12600;53.326;-6.298;2023-07-16T00:19:56;14.02;;;3.50;;
24421;SDS011;12600;53.326;-6.298;2023-07-16T00:22:45;12.68;;;3.55;;
24421;SDS011;12600;53.326;-6.298;2023-07-16T00:25:36;14.48;;;3.65;;
24421;SDS011;12600;53.326;-6.298;2023-07-16T00:28:26;16.17;;;3.45;;
24421;SDS011;12600;53.326;-6.298;2023-07-16T00:31:15;15.45;;;4.10;;
24421;SDS011;12600;53.326;-6.298;2023-07-16T00:34:05;10.10;;;3.33;;
24421;SDS011;12600;53.326;-6.298;2023-07-16T00:36:54;11.52;;;3.53;;
24421;SDS011;12600;53.326;-6.298;2023-07-16T00:39:48;13.48;;;3.88;;
24421;SDS011;12600;53.326;-6.298;2023-07-16T00:42:39;13.45;;;4.40;;
24421;SDS011;12600;53.326;-6.298;2023-07-16T00:45:30;13.55;;;4.00;;
24421;SDS011;12600;53.326;-6.298;2023-07-16T00:48:20;13.25;;;3.97;;
24421;SDS011;12600;53.326;-6.298;2023-07-16T00:51:09;14.95;;;3.20;;
24421;SDS011;12600;53.326;-6.298;2023-07-16T00:54:00;17.05;;;3.78;;
24421;SDS011;12600;53.326;-6.298;2023-07-16T00:56:50;13.48;;;3.63;;
24421;SDS011;12600;53.326;-6.298;2023-07-16T00:59:41;13.27;;;3.85;;
24421;SDS011;12600;53.326;-6.298;2023-07-16T01:02:30;14.07;;;3.80;;
24421;SDS011;12600;53.326;-6.298;2023-07-16T01:05:20;11.98;;;3.45;;
24421;SDS011;12600;53.326;-6.298;2023-07-16T01:08:12;10.02;;;3.13;;
24421;SDS011;12600;53.326;-6.298;2023-07-16T01:11:07;12.77;;;3.47;;
24421;SDS011;12600;53.326;-6.298;2023-07-16T01:13:57;13.40;;;3.25;;
24421;SDS011;12600;53.326;-6.298;2023-07-16T01:16:49;23.40;;;3.70;;
24421;SDS011;12600;53.326;-6.298;2023-07-16T01:19:45;13.32;;;3.78;;
24421;SDS011;12600;53.326;-6.298;2023-07-16T01:22:38;15.32;;;4.05;;
24421;SDS011;12600;53.326;-6.298;2023-07-16T01:26:14;12.77;;;3.63;;
24421;SDS011;12600;53.326;-6.298;2023-07-16T01:29:27;12.65;;;3.33;;
24421;SDS011;12600;53.326;-6.298;2023-07-16T01:32:19;13.95;;;3.55;;
24421;SDS011;12600;53.326;-6.298;2023-07-16T01:35:10;15.55;;;3.85;;
24421;SDS011;12600;53.326;-6.298;2023-07-16T01:38:01;10.40;;;3.03;;
24421;SDS011;12600;53.326;-6.298;2023-07-16T01:40:50;10.45;;;3.22;;
24421;SDS011;12600;53.326;-6.298;2023-07-16T01:43:40;13.40;;;3.45;;
24421;SDS011;12600;53.326;-6.298;2023-07-16T01:46:31;14.00;;;3.60;;
24421;SDS011;12600;53.326;-6.298;2023-07-16T01:49:20;11.15;;;3.25;;
24421;SDS011;12600;53.326;-6.298;2023-07-16T01:52:10;10.95;;;3.20;;
24421;SDS011;12600;53.326;-6.298;2023-07-16T01:54:59;11.48;;;3.20;;
24421;SDS011;12600;53.326;-6.298;2023-07-16T01:57:50;11.77;;;3.15;;
24421;SDS011;12600;53.326;-6.298;2023-07-16T02:00:39;10.75;;;3.30;;
24421;SDS011;12600;53.326;-6.298;2023-07-16T02:03:30;10.27;;;2.80;;
24421;SDS011;12600;53.326;-6.298;2023-07-16T02:06:20;11.38;;;2.90;;
24421;SDS011;12600;53.326;-6.298;2023-07-16T02:09:10;16.33;;;3.25;;
24421;SDS011;12600;53.326;-6.298;2023-07-16T02:11:59;10.43;;;2.88;;
24421;SDS011;12600;53.326;-6.298;2023-07-16T02:14:49;10.68;;;2.83;;
24421;SDS011;12600;53.326;-6.298;2023-07-16T02:17:38;9.68;;;2.65;;
24421;SDS011;12600;53.326;-6.298;2023-07-16T02:20:30;10.88;;;2.88;;
24421;SDS011;12600;53.326;-6.298;2023-07-16T02:23:20;9.23;;;2.85;;
24421;SDS011;12600;53.326;-6.298;2023-07-16T02:26:09;11.63;;;3.30;;
24421;SDS011;12600;53.326;-6.298;2023-07-16T02:28:58;8.80;;;2.50;;
24421;SDS011;12600;53.326;-6.298;2023-07-16T02:31:48;11.70;;;2.72;;
24421;SDS011;12600;53.326;-6.298;2023-07-16T02:34:37;9.27;;;2.60;;
24421;SDS011;12600;53.326;-6.298;2023-07-16T02:37:28;10.13;;;3.08;;
24421;SDS011;12600;53.326;-6.298;2023-07-16T02:40:17;11.85;;;2.85;;
24421;SDS011;12600;53.326;-6.298;2023-07-16T02:43:07;8.20;;;2.10;;
24421;SDS011;12600;53.326;-6.298;2023-07-16T02:45:57;11.80;;;3.00;;
24421;SDS011;12600;53.326;-6.298;2023-07-16T02:48:48;15.60;;;2.78;;
24421;SDS011;12600;53.326;-6.298;2023-07-16T02:51:38;8.00;;;2.60;;
24421;SDS011;12600;53.326;-6.298;2023-07-16T02:54:28;8.10;;;2.28;;
24421;SDS011;12600;53.326;-6.298;2023-07-16T02:57:18;13.82;;;3.33;;
24421;SDS011;12600;53.326;-6.298;2023-07-16T03:00:09;12.40;;;2.90;;
24421;SDS011;12600;53.326;-6.298;2023-07-16T03:03:00;8.98;;;3.05;;
24421;SDS011;12600;53.326;-6.298;2023-07-16T03:05:49;12.77;;;2.90;;
24421;SDS011;12600;53.326;-6.298;2023-07-16T03:08:39;12.70;;;3.22;;
24421;SDS011;12600;53.326;-6.298;2023-07-16T03:11:30;12.13;;;3.00;;
24421;SDS011;12600;53.326;-6.298;2023-07-16T03:14:19;7.75;;;2.50;;
24421;SDS011;12600;53.326;-6.298;2023-07-16T03:17:08;8.45;;;3.00;;
24421;SDS011;12600;53.326;-6.298;2023-07-16T03:19:58;8.70;;;2.80;;
24421;SDS011;12600;53.326;-6.298;2023-07-16T03:22:48;11.40;;;3.00;;
24421;SDS011;12600;53.326;-6.298;2023-07-16T03:25:37;13.32;;;3.33;;
24421;SDS011;12600;53.326;-6.298;2023-07-16T03:28:28;11.02;;;3.00;;
24421;SDS011;12600;53.326;-6.298;2023-07-16T03:31:19;8.97;;;2.87;;
24421;SDS011;12600;53.326;-6.298;2023-07-16T03:34:09;10.45;;;2.70;;
24421;SDS011;12600;53.326;-6.298;2023-07-16T03:36:58;9.98;;;2.80;;
24421;SDS011;12600;53.326;-6.298;2023-07-16T03:39:52;7.60;;;2.55;;
24421;SDS011;12600;53.326;-6.298;2023-07-16T03:42:43;7.07;;;2.42;;
24421;SDS011;12600;53.326;-6.298;2023-07-16T03:45:34;7.80;;;2.33;;
24421;SDS011;12600;53.326;-6.298;2023-07-16T03:48:23;8.48;;;2.47;;
24421;SDS011;12600;53.326;-6.298;2023-07-16T03:51:13;13.15;;;2.78;;
24421;SDS011;12600;53.326;-6.298;2023-07-16T03:54:02;9.07;;;2.38;;
24421;SDS011;12600;53.326;-6.298;2023-07-16T03:56:54;10.98;;;2.42;;
24421;SDS011;12600;53.326;-6.298;2023-07-16T03:59:44;6.43;;;2.50;;
24421;SDS011;12600;53.326;-6.298;2023-07-16T04:02:35;8.00;;;2.47;;
24421;SDS011;12600;53.326;-6.298;2023-07-16T04:05:26;10.65;;;2.30;;
24421;SDS011;12600;53.326;-6.298;2023-07-16T04:08:15;5.13;;;2.20;;
24421;SDS011;12600;53.326;-6.298;2023-07-16T04:11:05;9.55;;;2.50;;
24421;SDS011;12600;53.326;-6.298;2023-07-16T04:13:55;8.15;;;2.45;;
24421;SDS011;12600;53.326;-6.298;2023-07-16T04:16:45;6.15;;;2.38;;
24421;SDS011;12600;53.326;-6.298;2023-07-16T04:19:35;10.23;;;2.28;;
24421;SDS011;12600;53.326;-6.298;2023-07-16T04:22:25;6.32;;;2.00;;
24421;SDS011;12600;53.326;-6.298;2023-07-16T04:25:14;9.40;;;2.28;;
24421;SDS011;12600;53.326;-6.298;2023-07-16T04:28:03;9.30;;;2.40;;
24421;SDS011;12600;53.326;-6.298;2023-07-16T04:30:53;8.63;;;2.40;;
24421;SDS011;12600;53.326;-6.298;2023-07-16T04:33:42;6.28;;;2.35;;
24421;SDS011;12600;53.326;-6.298;2023-07-16T04:36:33;5.88;;;2.10;;
24421;SDS011;12600;53.326;-6.298;2023-07-16T04:39:22;9.77;;;2.55;;
24421;SDS011;12600;53.326;-6.298;2023-07-16T04:42:12;5.97;;;2.20;;
24421;SDS011;12600;53.326;-6.298;2023-07-16T04:45:01;8.38;;;2.25;;
24421;SDS011;12600;53.326;-6.298;2023-07-16T04:47:52;10.55;;;2.42;;
24421;SDS011;12600;53.326;-6.298;2023-07-16T04:50:42;7.80;;;2.60;;
24421;SDS011;12600;53.326;-6.298;2023-07-16T04:53:32;9.15;;;2.60;;
24421;SDS011;12600;53.326;-6.298;2023-07-16T04:56:22;6.25;;;2.35;;
24421;SDS011;12600;53.326;-6.298;2023-07-16T04:59:13;6.13;;;2.00;;
24421;SDS011;12600;53.326;-6.298;2023-07-16T05:02:04;8.02;;;2.05;;
24421;SDS011;12600;53.326;-6.298;2023-07-16T05:04:54;9.73;;;2.10;;
24421;SDS011;12600;53.326;-6.298;2023-07-16T05:07:44;7.50;;;2.30;;
24421;SDS011;12600;53.326;-6.298;2023-07-16T05:10:35;6.65;;;2.03;;
24421;SDS011;12600;53.326;-6.298;2023-07-16T05:13:24;8.63;;;2.30;;
24421;SDS011;12600;53.326;-6.298;2023-07-16T05:16:13;4.82;;;1.98;;
24421;SDS011;12600;53.326;-6.298;2023-07-16T05:19:03;6.25;;;1.92;;
24421;SDS011;12600;53.326;-6.298;2023-07-16T05:21:52;8.95;;;1.95;;
24421;SDS011;12600;53.326;-6.298;2023-07-16T05:24:42;6.85;;;2.15;;
24421;SDS011;12600;53.326;-6.298;2023-07-16T05:27:33;8.35;;;1.90;;
24421;SDS011;12600;53.326;-6.298;2023-07-16T05:30:23;9.05;;;1.90;;
24421;SDS011;12600;53.326;-6.298;2023-07-16T05:33:14;9.60;;;2.10;;
24421;SDS011;12600;53.326;-6.298;2023-07-16T05:36:04;8.32;;;2.17;;
24421;SDS011;12600;53.326;-6.298;2023-07-16T05:38:53;7.55;;;1.90;;
24421;SDS011;12600;53.326;-6.298;2023-07-16T05:41:43;6.95;;;1.83;;
24421;SDS011;12600;53.326;-6.298;2023-07-16T05:44:33;4.25;;;1.80;;
24421;SDS011;12600;53.326;-6.298;2023-07-16T05:47:23;10.68;;;2.28;;
24421;SDS011;12600;53.326;-6.298;2023-07-16T05:50:13;9.13;;;2.00;;
24421;SDS011;12600;53.326;-6.298;2023-07-16T05:53:03;9.02;;;1.67;;
24421;SDS011;12600;53.326;-6.298;2023-07-16T05:55:52;9.18;;;2.00;;
24421;SDS011;12600;53.326;-6.298;2023-07-16T05:58:41;8.60;;;2.03;;
24421;SDS011;12600;53.326;-6.298;2023-07-16T06:01:32;8.15;;;2.10;;
24421;SDS011;12600;53.326;-6.298;2023-07-16T06:04:21;7.18;;;2.15;;
24421;SDS011;12600;53.326;-6.298;2023-07-16T06:07:12;6.80;;;1.92;;
24421;SDS011;12600;53.326;-6.298;2023-07-16T06:10:01;9.13;;;2.20;;
24421;SDS011;12600;53.326;-6.298;2023-07-16T06:12:51;6.20;;;2.00;;
24421;SDS011;12600;53.326;-6.298;2023-07-16T06:15:40;10.40;;;2.10;;
24421;SDS011;12600;53.326;-6.298;2023-07-16T06:18:31;11.23;;;2.22;;
24421;SDS011;12600;53.326;-6.298;2023-07-16T06:21:20;6.95;;;1.98;;
24421;SDS011;12600;53.326;-6.298;2023-07-16T06:24:10;9.13;;;2.28;;
24421;SDS011;12600;53.326;-6.298;2023-07-16T06:27:03;8.63;;;2.58;;
24421;SDS011;12600;53.326;-6.298;2023-07-16T06:29:53;6.18;;;2.00;;
24421;SDS011;12600;53.326;-6.298;2023-07-16T06:32:42;7.95;;;2.33;;
24421;SDS011;12600;53.326;-6.298;2023-07-16T06:35:33;8.20;;;2.10;;
24421;SDS011;12600;53.326;-6.298;2023-07-16T06:38:23;7.20;;;1.98;;
24421;SDS011;12600;53.326;-6.298;2023-07-16T06:41:17;7.68;;;2.17;;
24421;SDS011;12600;53.326;-6.298;2023-07-16T06:44:06;6.57;;;2.20;;
24421;SDS011;12600;53.326;-6.298;2023-07-16T06:46:56;5.03;;;1.67;;
24421;SDS011;12600;53.326;-6.298;2023-07-16T06:49:46;7.68;;;2.30;;
24421;SDS011;12600;53.326;-6.298;2023-07-16T06:52:37;10.32;;;2.28;;
24421;SDS011;12600;53.326;-6.298;2023-07-16T06:55:26;6.70;;;2.05;;
24421;SDS011;12600;53.326;-6.298;2023-07-16T06:58:15;9.80;;;2.20;;
24421;SDS011;12600;53.326;-6.298;2023-07-16T07:01:05;10.85;;;3.25;;
24421;SDS011;12600;53.326;-6.298;2023-07-16T07:03:54;6.35;;;2.33;;
24421;SDS011;12600;53.326;-6.298;2023-07-16T07:06:44;8.77;;;2.30;;
24421;SDS011;12600;53.326;-6.298;2023-07-16T07:09:34;5.38;;;2.30;;
24421;SDS011;12600;53.326;-6.298;2023-07-16T07:12:24;6.28;;;1.90;;
24421;SDS011;12600;53.326;-6.298;2023-07-16T07:15:14;6.53;;;2.08;;
24421;SDS011;12600;53.326;-6.298;2023-07-16T07:18:04;7.30;;;2.20;;
24421;SDS011;12600;53.326;-6.298;2023-07-16T07:20:53;10.63;;;2.13;;
24421;SDS011;12600;53.326;-6.298;2023-07-16T07:23:43;6.78;;;2.35;;
24421;SDS011;12600;53.326;-6.298;2023-07-16T07:26:34;6.93;;;2.17;;
24421;SDS011;12600;53.326;-6.298;2023-07-16T07:29:23;5.65;;;1.92;;
24421;SDS011;12600;53.326;-6.298;2023-07-16T07:32:13;6.88;;;2.05;;
24421;SDS011;12600;53.326;-6.298;2023-07-16T07:35:02;9.82;;;2.63;;
24421;SDS011;12600;53.326;-6.298;2023-07-16T07:37:53;8.07;;;2.08;;
24421;SDS011;12600;53.326;-6.298;2023-07-16T07:40:42;10.73;;;2.78;;
24421;SDS011;12600;53.326;-6.298;2023-07-16T07:43:34;11.23;;;2.40;;
24421;SDS011;12600;53.326;-6.298;2023-07-16T07:46:23;11.00;;;2.38;;
24421;SDS011;12600;53.326;-6.298;2023-07-16T07:49:13;5.57;;;2.08;;
24421;SDS011;12600;53.326;-6.298;2023-07-16T07:52:02;9.75;;;2.50;;
24421;SDS011;12600;53.326;-6.298;2023-07-16T07:54:52;9.68;;;2.70;;
24421;SDS011;12600;53.326;-6.298;2023-07-16T07:57:42;8.75;;;2.58;;
24421;SDS011;12600;53.326;-6.298;2023-07-16T08:00:33;11.82;;;2.55;;
24421;SDS011;12600;53.326;-6.298;2023-07-16T08:03:22;6.72;;;2.25;;
24421;SDS011;12600;53.326;-6.298;2023-07-16T08:06:12;15.25;;;2.83;;
24421;SDS011;12600;53.326;-6.298;2023-07-16T08:09:02;10.77;;;2.60;;
24421;SDS011;12600;53.326;-6.298;2023-07-16T08:11:52;9.18;;;2.30;;
24421;SDS011;12600;53.326;-6.298;2023-07-16T08:14:41;7.47;;;2.00;;
24421;SDS011;12600;53.326;-6.298;2023-07-16T08:17:32;11.07;;;2.83;;
24421;SDS011;12600;53.326;-6.298;2023-07-16T08:20:22;13.10;;;3.15;;
24421;SDS011;12600;53.326;-6.298;2023-07-16T08:23:11;10.35;;;3.00;;
24421;SDS011;12600;53.326;-6.298;2023-07-16T08:26:01;12.90;;;2.58;;
24421;SDS011;12600;53.326;-6.298;2023-07-16T08:28:50;10.65;;;3.00;;
24421;SDS011;12600;53.326;-6.298;2023-07-16T08:31:39;9.05;;;2.60;;
24421;SDS011;12600;53.326;-6.298;2023-07-16T08:34:30;12.38;;;3.10;;
24421;SDS011;12600;53.326;-6.298;2023-07-16T08:37:20;14.07;;;3.28;;
24421;SDS011;12600;53.326;-6.298;2023-07-16T08:40:10;6.68;;;1.98;;
24421;SDS011;12600;53.326;-6.298;2023-07-16T08:43:00;7.13;;;2.50;;
24421;SDS011;12600;53.326;-6.298;2023-07-16T08:45:50;11.07;;;2.60;;
24421;SDS011;12600;53.326;-6.298;2023-07-16T08:48:40;10.77;;;2.55;;
24421;SDS011;12600;53.326;-6.298;2023-07-16T08:51:30;12.45;;;2.33;;
24421;SDS011;12600;53.326;-6.298;2023-07-16T08:54:21;8.10;;;2.10;;
24421;SDS011;12600;53.326;-6.298;2023-07-16T08:57:13;5.23;;;1.80;;
24421;SDS011;12600;53.326;-6.298;2023-07-16T09:00:03;5.57;;;1.98;;
24421;SDS011;12600;53.326;-6.298;2023-07-16T09:02:54;9.32;;;2.50;;
24421;SDS011;12600;53.326;-6.298;2023-07-16T09:05:44;5.82;;;1.95;;
24421;SDS011;12600;53.326;-6.298;2023-07-16T09:08:35;8.63;;;2.10;;
24421;SDS011;12600;53.326;-6.298;2023-07-16T09:11:25;7.78;;;2.05;;
24421;SDS011;12600;53.326;-6.298;2023-07-16T09:14:15;7.90;;;1.98;;
24421;SDS011;12600;53.326;-6.298;2023-07-16T09:17:06;10.80;;;2.72;;
24421;SDS011;12600;53.326;-6.298;2023-07-16T09:19:56;7.25;;;2.70;;
24421;SDS011;12600;53.326;-6.298;2023-07-16T09:22:46;9.18;;;2.42;;
24421;SDS011;12600;53.326;-6.298;2023-07-16T09:25:37;7.47;;;2.80;;
24421;SDS011;12600;53.326;-6.298;2023-07-16T09:28:28;8.77;;;2.20;;
24421;SDS011;12600;53.326;-6.298;2023-07-16T09:31:19;15.45;;;3.03;;
24421;SDS011;12600;53.326;-6.298;2023-07-16T09:34:09;10.45;;;3.15;;
24421;SDS011;12600;53.326;-6.298;2023-07-16T09:36:58;10.13;;;2.90;;
24421;SDS011;12600;53.326;-6.298;2023-07-16T09:39:49;6.68;;;2.72;;
24421;SDS011;12600;53.326;-6.298;2023-07-16T09:42:41;8.80;;;2.83;;
24421;SDS011;12600;53.326;-6.298;2023-07-16T09:45:31;8.07;;;3.00;;
24421;SDS011;12600;53.326;-6.298;2023-07-16T09:48:21;9.52;;;3.13;;
24421;SDS011;12600;53.326;-6.298;2023-07-16T09:51:11;8.82;;;2.72;;
24421;SDS011;12600;53.326;-6.298;2023-07-16T09:54:01;12.27;;;3.13;;
24421;SDS011;12600;53.326;-6.298;2023-07-16T09:56:54;12.25;;;2.30;;
24421;SDS011;12600;53.326;-6.298;2023-07-16T09:59:48;12.77;;;2.70;;
24421;SDS011;12600;53.326;-6.298;2023-07-16T10:02:39;9.88;;;2.88;;
24421;SDS011;12600;53.326;-6.298;2023-07-16T10:05:29;11.63;;;2.65;;
24421;SDS011;12600;53.326;-6.298;2023-07-16T10:08:19;10.68;;;2.92;;
24421;SDS011;12600;53.326;-6.298;2023-07-16T10:11:15;10.60;;;3.20;;
24421;SDS011;12600;53.326;-6.298;2023-07-16T10:14:05;8.80;;;2.63;;
24421;SDS011;12600;53.326;-6.298;2023-07-16T10:17:01;6.82;;;2.33;;
24421;SDS011;12600;53.326;-6.298;2023-07-16T10:19:56;12.75;;;3.45;;
24421;SDS011;12600;53.326;-6.298;2023-07-16T10:22:49;9.82;;;2.70;;
24421;SDS011;12600;53.326;-6.298;2023-07-16T10:25:38;9.38;;;2.45;;
24421;SDS011;12600;53.326;-6.298;2023-07-16T10:28:28;7.18;;;2.42;;
24421;SDS011;12600;53.326;-6.298;2023-07-16T10:31:18;10.18;;;2.70;;
24421;SDS011;12600;53.326;-6.298;2023-07-16T10:34:12;8.20;;;3.20;;
24421;SDS011;12600;53.326;-6.298;2023-07-16T10:37:01;9.57;;;2.97;;
24421;SDS011;12600;53.326;-6.298;2023-07-16T10:39:52;9.57;;;2.80;;
24421;SDS011;12600;53.326;-6.298;2023-07-16T10:42:43;7.50;;;2.55;;
24421;SDS011;12600;53.326;-6.298;2023-07-16T10:45:34;8.77;;;2.67;;
24421;SDS011;12600;53.326;-6.298;2023-07-16T10:48:24;12.85;;;2.85;;
24421;SDS011;12600;53.326;-6.298;2023-07-16T10:51:15;11.73;;;2.88;;
24421;SDS011;12600;53.326;-6.298;2023-07-16T10:54:05;10.35;;;2.53;;
24421;SDS011;12600;53.326;-6.298;2023-07-16T10:56:54;8.48;;;2.30;;
24421;SDS011;12600;53.326;-6.298;2023-07-16T10:59:44;6.38;;;2.20;;
24421;SDS011;12600;53.326;-6.298;2023-07-16T11:02:38;6.00;;;2.10;;
24421;SDS011;12600;53.326;-6.298;2023-07-16T11:08:22;8.77;;;2.50;;
24421;SDS011;12600;53.326;-6.298;2023-07-16T11:11:12;7.47;;;2.13;;
24421;SDS011;12600;53.326;-6.298;2023-07-16T11:14:03;8.90;;;2.22;;
24421;SDS011;12600;53.326;-6.298;2023-07-16T11:16:53;7.05;;;2.10;;
24421;SDS011;12600;53.326;-6.298;2023-07-16T11:19:54;7.57;;;2.35;;
24421;SDS011;12600;53.326;-6.298;2023-07-16T11:22:44;5.82;;;2.15;;
24421;SDS011;12600;53.326;-6.298;2023-07-16T11:25:38;8.43;;;2.80;;
24421;SDS011;12600;53.326;-6.298;2023-07-16T11:28:35;10.13;;;2.40;;
24421;SDS011;12600;53.326;-6.298;2023-07-16T11:31:25;4.72;;;1.80;;
24421;SDS011;12600;53.326;-6.298;2023-07-16T11:34:15;6.20;;;2.20;;
24421;SDS011;12600;53.326;-6.298;2023-07-16T11:37:08;6.53;;;1.85;;
24421;SDS011;12600;53.326;-6.298;2023-07-16T11:39:58;9.95;;;2.22;;
24421;SDS011;12600;53.326;-6.298;2023-07-16T11:42:53;6.22;;;2.25;;
24421;SDS011;12600;53.326;-6.298;2023-07-16T11:45:46;7.32;;;2.00;;
24421;SDS011;12600;53.326;-6.298;2023-07-16T11:48:37;5.78;;;1.90;;
24421;SDS011;12600;53.326;-6.298;2023-07-16T11:51:26;5.53;;;1.60;;
24421;SDS011;12600;53.326;-6.298;2023-07-16T11:54:16;7.43;;;1.88;;
24421;SDS011;12600;53.326;-6.298;2023-07-16T11:57:05;6.82;;;2.20;;
24421;SDS011;12600;53.326;-6.298;2023-07-16T11:59:56;6.28;;;1.83;;
24421;SDS011;12600;53.326;-6.298;2023-07-16T12:02:53;6.50;;;1.98;;
24421;SDS011;12600;53.326;-6.298;2023-07-16T12:05:43;11.10;;;2.42;;
24421;SDS011;12600;53.326;-6.298;2023-07-16T12:08:39;7.47;;;2.28;;
24421;SDS011;12600;53.326;-6.298;2023-07-16T12:11:28;8.30;;;2.58;;
24421;SDS011;12600;53.326;-6.298;2023-07-16T12:14:18;10.82;;;2.33;;
24421;SDS011;12600;53.326;-6.298;2023-07-16T12:17:08;7.57;;;1.88;;
24421;SDS011;12600;53.326;-6.298;2023-07-16T12:19:59;6.57;;;1.98;;
24421;SDS011;12600;53.326;-6.298;2023-07-16T12:22:49;5.60;;;1.75;;
24421;SDS011;12600;53.326;-6.298;2023-07-16T12:25:39;6.82;;;1.60;;
24421;SDS011;12600;53.326;-6.298;2023-07-16T12:28:28;7.65;;;1.65;;
24421;SDS011;12600;53.326;-6.298;2023-07-16T12:31:17;5.57;;;1.90;;
24421;SDS011;12600;53.326;-6.298;2023-07-16T12:34:08;6.38;;;1.85;;
24421;SDS011;12600;53.326;-6.298;2023-07-16T12:36:58;6.82;;;1.92;;
24421;SDS011;12600;53.326;-6.298;2023-07-16T12:39:47;6.00;;;1.65;;
24421;SDS011;12600;53.326;-6.298;2023-07-16T12:42:36;5.97;;;1.80;;
24421;SDS011;12600;53.326;-6.298;2023-07-16T12:45:26;7.78;;;1.80;;
24421;SDS011;12600;53.326;-6.298;2023-07-16T12:48:15;4.68;;;1.60;;
24421;SDS011;12600;53.326;-6.298;2023-07-16T12:51:06;5.43;;;2.05;;
24421;SDS011;12600;53.326;-6.298;2023-07-16T12:53:55;5.95;;;1.60;;
24421;SDS011;12600;53.326;-6.298;2023-07-16T12:56:45;3.30;;;1.40;;
24421;SDS011;12600;53.326;-6.298;2023-07-16T12:59:34;6.25;;;1.80;;
24421;SDS011;12600;53.326;-6.298;2023-07-16T13:02:24;5.95;;;1.70;;
24421;SDS011;12600;53.326;-6.298;2023-07-16T13:05:13;6.15;;;1.60;;
24421;SDS011;12600;53.326;-6.298;2023-07-16T13:08:04;6.32;;;1.60;;
24421;SDS011;12600;53.326;-6.298;2023-07-16T13:10:54;4.60;;;1.65;;
24421;SDS011;12600;53.326;-6.298;2023-07-16T13:13:43;3.88;;;2.17;;
24421;SDS011;12600;53.326;-6.298;2023-07-16T13:16:32;5.07;;;1.77;;
24421;SDS011;12600;53.326;-6.298;2023-07-16T13:19:22;4.85;;;1.70;;
24421;SDS011;12600;53.326;-6.298;2023-07-16T13:22:12;5.25;;;1.70;;
24421;SDS011;12600;53.326;-6.298;2023-07-16T13:25:04;5.68;;;1.85;;
24421;SDS011;12600;53.326;-6.298;2023-07-16T13:27:54;3.45;;;1.70;;
24421;SDS011;12600;53.326;-6.298;2023-07-16T13:30:44;4.63;;;1.63;;
24421;SDS011;12600;53.326;-6.298;2023-07-16T13:33:33;3.88;;;1.80;;
24421;SDS011;12600;53.326;-6.298;2023-07-16T13:36:23;4.13;;;1.63;;
24421;SDS011;12600;53.326;-6.298;2023-07-16T13:39:12;6.78;;;1.63;;
24421;SDS011;12600;53.326;-6.298;2023-07-16T13:42:04;3.05;;;1.60;;
24421;SDS011;12600;53.326;-6.298;2023-07-16T13:45:09;4.18;;;1.58;;
24421;SDS011;12600;53.326;-6.298;2023-07-16T13:47:58;5.10;;;1.55;;
24421;SDS011;12600;53.326;-6.298;2023-07-16T13:50:48;4.00;;;1.90;;
24421;SDS011;12600;53.326;-6.298;2023-07-16T13:53:37;4.80;;;1.92;;
24421;SDS011;12600;53.326;-6.298;2023-07-16T13:56:27;3.85;;;2.00;;
24421;SDS011;12600;53.326;-6.298;2023-07-16T13:59:19;4.75;;;1.70;;
24421;SDS011;12600;53.326;-6.298;2023-07-16T14:02:08;4.40;;;2.00;;
24421;SDS011;12600;53.326;-6.298;2023-07-16T14:04:58;4.72;;;2.10;;
24421;SDS011;12600;53.326;-6.298;2023-07-16T14:07:47;5.70;;;2.17;;
24421;SDS011;12600;53.326;-6.298;2023-07-16T14:10:38;3.63;;;2.10;;
24421;SDS011;12600;53.326;-6.298;2023-07-16T14:13:27;5.20;;;2.20;;
24421;SDS011;12600;53.326;-6.298;2023-07-16T14:16:18;7.68;;;2.30;;
24421;SDS011;12600;53.326;-6.298;2023-07-16T14:19:08;7.80;;;2.40;;
24421;SDS011;12600;53.326;-6.298;2023-07-16T14:21:59;7.82;;;2.45;;
24421;SDS011;12600;53.326;-6.298;2023-07-16T14:24:48;5.68;;;2.50;;
24421;SDS011;12600;53.326;-6.298;2023-07-16T14:27:38;5.95;;;2.53;;
24421;SDS011;12600;53.326;-6.298;2023-07-16T14:30:28;5.40;;;2.30;;
24421;SDS011;12600;53.326;-6.298;2023-07-16T14:33:19;5.03;;;2.03;;
24421;SDS011;12600;53.326;-6.298;2023-07-16T14:36:09;5.65;;;2.20;;
24421;SDS011;12600;53.326;-6.298;2023-07-16T14:38:58;4.38;;;2.10;;
24421;SDS011;12600;53.326;-6.298;2023-07-16T14:41:47;3.88;;;1.90;;
24421;SDS011;12600;53.326;-6.298;2023-07-16T14:44:37;4.20;;;1.73;;
24421;SDS011;12600;53.326;-6.298;2023-07-16T14:47:26;4.95;;;2.00;;
24421;SDS011;12600;53.326;-6.298;2023-07-16T14:50:17;4.07;;;1.92;;
24421;SDS011;12600;53.326;-6.298;2023-07-16T14:53:06;5.07;;;2.10;;
24421;SDS011;12600;53.326;-6.298;2023-07-16T14:55:56;3.72;;;2.38;;
24421;SDS011;12600;53.326;-6.298;2023-07-16T14:58:45;5.72;;;2.33;;
24421;SDS011;12600;53.326;-6.298;2023-07-16T15:01:34;3.55;;;2.00;;
24421;SDS011;12600;53.326;-6.298;2023-07-16T15:04:24;4.18;;;1.83;;
24421;SDS011;12600;53.326;-6.298;2023-07-16T15:07:15;5.57;;;2.60;;
24421;SDS011;12600;53.326;-6.298;2023-07-16T15:10:04;4.15;;;2.10;;
24421;SDS011;12600;53.326;-6.298;2023-07-16T15:12:55;5.63;;;2.85;;
24421;SDS011;12600;53.326;-6.298;2023-07-16T15:15:47;4.63;;;2.40;;
24421;SDS011;12600;53.326;-6.298;2023-07-16T15:18:37;4.57;;;2.00;;
24421;SDS011;12600;53.326;-6.298;2023-07-16T15:21:26;4.47;;;2.10;;
24421;SDS011;12600;53.326;-6.298;2023-07-16T15:24:17;4.97;;;2.10;;
24421;SDS011;12600;53.326;-6.298;2023-07-16T15:27:06;4.40;;;1.88;;
24421;SDS011;12600;53.326;-6.298;2023-07-16T15:29:56;3.40;;;1.30;;
24421;SDS011;12600;53.326;-6.298;2023-07-16T15:32:45;2.90;;;1.42;;
24421;SDS011;12600;53.326;-6.298;2023-07-16T15:35:34;3.80;;;1.67;;
24421;SDS011;12600;53.326;-6.298;2023-07-16T15:38:24;4.00;;;1.70;;
24421;SDS011;12600;53.326;-6.298;2023-07-16T15:41:16;4.05;;;2.10;;
24421;SDS011;12600;53.326;-6.298;2023-07-16T15:44:07;4.10;;;1.77;;
24421;SDS011;12600;53.326;-6.298;2023-07-16T15:46:56;4.32;;;2.40;;
24421;SDS011;12600;53.326;-6.298;2023-07-16T15:49:46;5.40;;;2.42;;
24421;SDS011;12600;53.326;-6.298;2023-07-16T15:52:36;5.18;;;2.40;;
24421;SDS011;12600;53.326;-6.298;2023-07-16T15:55:26;5.57;;;2.45;;
24421;SDS011;12600;53.326;-6.298;2023-07-16T15:58:16;5.25;;;2.25;;
24421;SDS011;12600;53.326;-6.298;2023-07-16T16:01:08;2.50;;;1.50;;
24421;SDS011;12600;53.326;-6.298;2023-07-16T16:03:58;2.38;;;1.30;;
24421;SDS011;12600;53.326;-6.298;2023-07-16T16:06:48;2.75;;;1.60;;
24421;SDS011;12600;53.326;-6.298;2023-07-16T16:09:37;2.60;;;1.50;;
24421;SDS011;12600;53.326;-6.298;2023-07-16T16:12:26;3.05;;;1.80;;
24421;SDS011;12600;53.326;-6.298;2023-07-16T16:15:17;4.50;;;1.90;;
24421;SDS011;12600;53.326;-6.298;2023-07-16T16:18:07;4.40;;;1.90;;
24421;SDS011;12600;53.326;-6.298;2023-07-16T16:20:58;3.97;;;1.83;;
24421;SDS011;12600;53.326;-6.298;2023-07-16T16:23:47;5.07;;;2.47;;
24421;SDS011;12600;53.326;-6.298;2023-07-16T16:26:37;3.22;;;1.92;;
24421;SDS011;12600;53.326;-6.298;2023-07-16T16:29:26;6.15;;;2.35;;
24421;SDS011;12600;53.326;-6.298;2023-07-16T16:32:17;6.15;;;2.00;;
24421;SDS011;12600;53.326;-6.298;2023-07-16T16:35:06;4.82;;;2.25;;
24421;SDS011;12600;53.326;-6.298;2023-07-16T16:37:56;5.47;;;2.60;;
24421;SDS011;12600;53.326;-6.298;2023-07-16T16:40:46;5.75;;;2.58;;
24421;SDS011;12600;53.326;-6.298;2023-07-16T16:43:35;4.78;;;2.40;;
24421;SDS011;12600;53.326;-6.298;2023-07-16T16:46:25;4.65;;;2.05;;
24421;SDS011;12600;53.326;-6.298;2023-07-16T16:49:16;4.07;;;1.98;;